createdAt,value
2018-11-14T07:36:46.628Z,4.00
2018-11-14T07:39:14.917Z,4.10
2018-11-14T07:41:43.163Z,4.20
2018-11-14T07:44:11.404Z,4.20
2018-11-14T07:46:39.636Z,4.30
2018-11-14T07:49:07.948Z,4.40
2018-11-14T07:51:36.113Z,4.50
2018-11-14T07:54:04.357Z,4.60
2018-11-14T07:56:35.788Z,4.60
2018-11-14T07:59:04.022Z,4.70
2018-11-14T08:01:32.244Z,4.80
2018-11-14T08:04:00.497Z,4.90
2018-11-14T08:06:28.728Z,4.90
2018-11-14T08:08:56.957Z,5.00
2018-11-14T08:11:25.213Z,5.10
2018-11-14T08:13:53.430Z,5.20
2018-11-14T08:16:21.675Z,5.30
2018-11-14T08:18:49.978Z,5.50
2018-11-14T08:21:18.153Z,5.50
2018-11-14T08:23:46.385Z,5.60
2018-11-14T08:26:14.627Z,5.70
2018-11-14T08:28:42.840Z,5.80
2018-11-14T08:31:11.089Z,6.00
2018-11-14T08:33:39.325Z,6.10
2018-11-14T08:36:07.610Z,6.10
2018-11-14T08:38:35.848Z,6.20
2018-11-14T08:41:04.131Z,6.30
2018-11-14T08:43:32.392Z,6.30
2018-11-14T08:46:00.646Z,6.30
2018-11-14T08:48:28.917Z,6.40
2018-11-14T08:50:57.160Z,6.40
2018-11-14T08:53:25.397Z,6.50
2018-11-14T08:55:53.637Z,6.50
2018-11-14T08:58:21.867Z,6.60
2018-11-14T09:00:50.116Z,6.60
2018-11-14T09:03:18.342Z,6.70
2018-11-14T09:05:46.591Z,6.70
2018-11-14T09:08:14.824Z,6.90
2018-11-14T09:10:43.064Z,6.90
2018-11-14T09:13:13.066Z,7.00
2018-11-14T09:15:41.442Z,7.00
2018-11-14T09:18:16.590Z,7.10
2018-11-14T09:20:44.772Z,7.20
2018-11-14T09:23:13.004Z,7.30
2018-11-14T09:25:41.248Z,7.30
2018-11-14T09:28:09.473Z,7.30
2018-11-14T09:30:37.720Z,7.40
2018-11-14T09:33:06.312Z,7.40
2018-11-14T09:35:34.560Z,7.40
2018-11-14T09:38:02.778Z,7.50
2018-11-14T09:40:31.244Z,7.60
2018-11-14T09:42:59.482Z,7.70
2018-11-14T09:45:28.889Z,7.90
2018-11-14T09:47:57.143Z,7.90
2018-11-14T09:50:27.524Z,8.00
2018-11-14T09:52:59.007Z,8.10
2018-11-14T09:55:27.213Z,8.20
2018-11-14T09:57:55.476Z,8.30
2018-11-14T10:00:26.756Z,8.30
2018-11-14T10:02:57.650Z,8.30
2018-11-14T10:05:26.089Z,8.40
2018-11-14T10:07:54.388Z,8.50
2018-11-14T10:10:23.091Z,8.60
2018-11-14T10:12:51.340Z,8.80
2018-11-14T10:15:20.679Z,8.90
2018-11-14T10:17:49.220Z,8.90
2018-11-14T10:20:18.684Z,9.00
2018-11-14T10:22:46.987Z,9.10
2018-11-14T10:25:15.772Z,9.20
2018-11-14T10:27:44.555Z,9.20
2018-11-14T10:30:14.999Z,9.30
2018-11-14T10:32:43.942Z,9.30
2018-11-14T10:35:12.345Z,9.40
2018-11-14T10:37:40.909Z,9.50
2018-11-14T10:40:11.912Z,9.50
2018-11-14T10:42:40.339Z,9.60
2018-11-14T10:45:09.758Z,9.60
2018-11-14T10:47:38.022Z,9.70
2018-11-14T10:50:08.220Z,9.70
2018-11-14T10:52:36.556Z,9.80
2018-11-14T10:55:05.372Z,10.00
2018-11-14T10:57:33.630Z,10.00
2018-11-14T11:00:01.879Z,10.00
2018-11-14T11:02:35.564Z,10.00
2018-11-14T11:05:09.036Z,9.90
2018-11-14T11:07:42.536Z,10.00
2018-11-14T11:10:16.195Z,9.90
2018-11-14T11:14:54.640Z,9.90
2018-11-14T11:17:32.099Z,9.90
2018-11-14T11:20:00.349Z,9.80
2018-11-14T11:22:28.596Z,9.80
2018-11-14T11:24:56.824Z,9.90
2018-11-14T11:27:25.065Z,9.90
2018-11-14T11:29:53.609Z,10.00
2018-11-14T11:32:21.860Z,10.10
2018-11-14T11:34:50.101Z,10.30
2018-11-14T11:37:18.368Z,10.50
2018-11-14T11:39:46.597Z,10.70
2018-11-14T11:42:14.833Z,10.70
2018-11-14T11:44:43.081Z,10.80
2018-11-14T11:47:11.325Z,10.80
2018-11-14T11:49:39.585Z,11.00
2018-11-14T11:52:07.831Z,11.10
2018-11-14T11:54:36.089Z,10.90
2018-11-14T11:57:04.332Z,11.10
2018-11-14T11:59:32.651Z,11.10
2018-11-14T12:02:00.832Z,11.20
2018-11-14T12:04:29.071Z,11.20
2018-11-14T12:06:57.288Z,11.30
2018-11-14T12:09:25.539Z,11.20
2018-11-14T12:11:53.763Z,11.10
2018-11-14T12:14:22.010Z,11.00
2018-11-14T12:16:50.260Z,11.00
2018-11-14T12:19:18.584Z,10.90
2018-11-14T12:21:46.781Z,10.90
2018-11-14T12:24:15.021Z,10.70
2018-11-14T12:26:43.260Z,10.60
2018-11-14T12:29:11.506Z,10.60
2018-11-14T12:31:39.721Z,10.50
2018-11-14T12:34:07.961Z,10.60
2018-11-14T12:36:36.253Z,10.60
2018-11-14T12:39:06.594Z,10.50
2018-11-14T12:41:34.851Z,10.50
2018-11-14T12:44:03.112Z,10.50
2018-11-14T12:46:31.341Z,10.60
2018-11-14T12:48:59.586Z,10.60
2018-11-14T12:51:27.806Z,10.60
2018-11-14T12:53:56.052Z,10.50
2018-11-14T12:56:24.300Z,10.60
2018-11-14T12:58:52.548Z,10.50
2018-11-14T13:01:20.804Z,10.40
2018-11-14T13:03:49.051Z,10.30
2018-11-14T13:06:17.275Z,10.20
2018-11-14T13:08:45.505Z,10.20
2018-11-14T13:11:13.766Z,10.10
2018-11-14T13:13:47.164Z,10.10
2018-11-14T13:16:16.180Z,10.00
2018-11-14T13:18:44.629Z,9.90
2018-11-14T13:21:13.092Z,9.90
2018-11-14T13:23:41.429Z,9.80
2018-11-14T13:26:10.104Z,9.80
2018-11-14T13:28:38.744Z,9.80
2018-11-14T13:31:07.156Z,9.80
2018-11-14T13:33:35.621Z,9.80
2018-11-14T13:36:03.880Z,9.80
2018-11-14T13:38:32.103Z,9.80
2018-11-14T13:41:00.349Z,9.70
2018-11-14T13:43:28.592Z,9.70
2018-11-14T13:45:56.829Z,9.70
2018-11-14T13:48:25.101Z,9.80
2018-11-14T13:50:53.492Z,9.80
2018-11-14T13:53:21.605Z,9.80
2018-11-14T13:55:49.844Z,9.80
2018-11-14T13:58:18.069Z,9.80
2018-11-14T14:00:46.315Z,9.80
2018-11-14T14:03:14.529Z,9.80
2018-11-14T14:05:42.780Z,9.80
2018-11-14T14:08:11.042Z,9.70
2018-11-14T14:10:39.269Z,9.70
2018-11-14T14:13:07.504Z,9.50
2018-11-14T14:15:35.745Z,9.40
2018-11-14T14:18:03.956Z,9.30
2018-11-14T14:20:32.197Z,9.20
2018-11-14T14:23:00.416Z,9.10
2018-11-14T14:25:28.653Z,8.90
2018-11-14T14:27:56.860Z,8.80
2018-11-14T14:30:25.097Z,8.70
2018-11-14T14:32:53.304Z,8.60
2018-11-14T14:35:22.422Z,8.50
2018-11-14T14:37:50.681Z,8.30
2018-11-14T14:40:20.037Z,8.20
2018-11-14T14:42:48.350Z,8.10
2018-11-14T14:45:19.028Z,8.00
2018-11-14T14:47:47.273Z,7.80
2018-11-14T14:50:16.694Z,7.70
2018-11-14T14:52:45.225Z,7.60
2018-11-14T14:55:15.746Z,7.50
2018-11-14T14:57:44.740Z,7.40
2018-11-14T15:00:19.977Z,7.30
2018-11-14T15:02:48.196Z,7.20
2018-11-14T15:05:16.425Z,7.00
2018-11-14T15:07:44.648Z,6.90
2018-11-14T15:10:14.537Z,6.80
2018-11-14T15:12:42.850Z,6.70
2018-11-14T15:15:11.460Z,6.60
2018-11-14T15:17:39.693Z,6.50
2018-11-14T15:20:13.561Z,6.40
2018-11-14T15:22:42.106Z,6.30
2018-11-14T15:25:11.957Z,6.20
2018-11-14T15:27:40.938Z,6.10
2018-11-14T15:30:12.024Z,6.00
2018-11-14T15:32:40.648Z,5.90
2018-11-14T15:35:09.731Z,5.80
2018-11-14T15:37:38.128Z,5.70
2018-11-14T15:40:07.440Z,5.60
2018-11-14T15:42:36.403Z,5.60
2018-11-14T15:45:05.193Z,5.50
2018-11-14T15:47:33.426Z,5.40
2018-11-14T15:50:01.656Z,5.40
2018-11-14T15:52:29.908Z,5.30
2018-11-14T15:54:58.133Z,5.20
2018-11-14T15:57:26.380Z,5.20
2018-11-14T15:59:54.604Z,5.10
2018-11-14T16:02:22.878Z,5.10
2018-11-14T16:04:51.109Z,5.00
2018-11-14T16:07:19.364Z,5.00
2018-11-14T16:09:47.593Z,5.00
2018-11-14T16:12:15.876Z,4.90
2018-11-14T16:14:44.085Z,4.90
2018-11-14T16:17:12.333Z,4.80
2018-11-14T16:19:40.556Z,4.80
2018-11-14T16:22:08.808Z,4.70
2018-11-14T16:24:37.091Z,4.70
2018-11-14T16:27:05.649Z,4.60
2018-11-14T16:29:33.884Z,4.60
2018-11-14T16:32:02.165Z,4.50
2018-11-14T16:34:30.406Z,4.50
2018-11-14T16:36:58.679Z,4.50
2018-11-14T16:39:26.904Z,4.40
2018-11-14T16:41:55.155Z,4.40
2018-11-14T16:44:23.441Z,4.40
2018-11-14T16:46:51.646Z,4.50
2018-11-14T16:49:19.887Z,4.50
2018-11-14T16:51:48.105Z,4.60
2018-11-14T16:54:16.341Z,4.60
2018-11-14T16:56:44.568Z,4.60
2018-11-14T16:59:12.800Z,4.60
2018-11-14T17:01:41.022Z,4.60
2018-11-14T17:04:09.264Z,4.70
2018-11-14T17:06:37.494Z,4.70
2018-11-14T17:09:08.545Z,4.70
2018-11-14T17:11:36.788Z,4.70
2018-11-14T17:14:05.197Z,4.70
2018-11-14T17:16:33.427Z,4.70
2018-11-14T17:19:02.229Z,4.70
2018-11-14T17:21:30.460Z,4.70
2018-11-14T17:23:58.719Z,4.70
2018-11-14T17:26:26.956Z,4.70
2018-11-14T17:28:55.188Z,4.70
2018-11-14T17:31:23.440Z,4.70
2018-11-14T17:33:51.658Z,4.70
2018-11-14T17:36:19.892Z,4.60
2018-11-14T17:38:48.129Z,4.60
2018-11-14T17:41:16.378Z,4.60
2018-11-14T17:43:44.983Z,4.50
2018-11-14T17:46:13.239Z,4.50
2018-11-14T17:48:41.471Z,4.40
2018-11-14T17:51:09.707Z,4.30
2018-11-14T17:53:37.936Z,4.30
2018-11-14T17:56:06.187Z,4.20
2018-11-14T17:58:34.409Z,4.20
2018-11-14T18:01:02.741Z,4.20
2018-11-14T18:03:30.939Z,4.10
2018-11-14T18:05:59.183Z,4.10
2018-11-14T18:08:27.396Z,4.00
2018-11-14T18:10:55.660Z,4.00
2018-11-14T18:13:23.875Z,3.90
2018-11-14T18:15:52.111Z,3.90
2018-11-14T18:18:20.348Z,3.90
2018-11-14T18:20:48.563Z,3.90
2018-11-14T18:23:16.801Z,3.90
2018-11-14T18:25:45.028Z,3.90
2018-11-14T18:28:13.278Z,3.90
2018-11-14T18:30:41.602Z,3.90
2018-11-14T18:33:09.777Z,4.00
2018-11-14T18:35:38.009Z,4.00
2018-11-14T18:38:06.253Z,4.00
2018-11-14T18:40:35.240Z,4.00
2018-11-14T18:43:03.506Z,4.10
2018-11-14T18:45:33.758Z,4.10
2018-11-14T18:48:02.624Z,4.10
2018-11-14T18:50:30.908Z,4.10
2018-11-14T18:52:59.165Z,4.10
2018-11-14T18:55:28.768Z,4.10
2018-11-14T18:57:57.488Z,4.10
2018-11-14T19:00:26.877Z,4.00
2018-11-14T19:02:55.100Z,4.00
2018-11-14T19:05:23.340Z,4.00
2018-11-14T19:07:51.576Z,4.00
2018-11-14T19:10:21.328Z,4.00
2018-11-14T19:12:50.258Z,4.00
2018-11-14T19:15:19.878Z,4.00
2018-11-14T19:17:48.103Z,4.00
2018-11-14T19:20:18.428Z,4.00
2018-11-14T19:22:46.736Z,4.00
2018-11-14T19:25:16.432Z,4.00
2018-11-14T19:27:45.450Z,4.00
2018-11-14T19:30:14.881Z,4.10
2018-11-14T19:32:44.092Z,4.10
2018-11-14T19:35:12.906Z,4.10
2018-11-14T19:37:42.388Z,4.00
2018-11-14T19:40:13.528Z,4.00
2018-11-14T19:42:42.249Z,4.00
2018-11-14T19:45:12.989Z,3.90
2018-11-14T19:47:41.839Z,3.90
2018-11-14T19:50:11.729Z,3.90
2018-11-14T19:52:40.204Z,3.80
2018-11-14T19:55:09.722Z,3.80
2018-11-14T19:57:37.951Z,3.70
2018-11-14T20:00:10.528Z,3.70
2018-11-14T20:02:38.760Z,3.70
2018-11-14T20:05:07.876Z,3.70
2018-11-14T20:07:36.536Z,3.70
2018-11-14T20:10:05.743Z,3.60
2018-11-14T20:12:33.996Z,3.70
2018-11-14T20:15:02.247Z,3.70
2018-11-14T20:17:30.499Z,3.70
2018-11-14T20:19:58.744Z,3.70
2018-11-14T20:22:26.984Z,3.70
2018-11-14T20:24:55.221Z,3.70
2018-11-14T20:27:23.473Z,3.70
2018-11-14T20:29:51.701Z,3.70
2018-11-14T20:32:19.948Z,3.80
2018-11-14T20:34:48.193Z,3.80
2018-11-14T20:37:16.467Z,3.80
2018-11-14T20:39:44.696Z,3.80
2018-11-14T20:42:12.999Z,3.80
2018-11-14T20:44:41.235Z,3.80
2018-11-14T20:47:09.480Z,3.80
2018-11-14T20:49:37.696Z,3.90
2018-11-14T20:52:05.942Z,3.90
2018-11-14T20:54:34.179Z,3.90
2018-11-14T20:57:02.422Z,3.90
2018-11-14T20:59:30.661Z,3.90
2018-11-14T21:01:58.909Z,3.90
2018-11-14T21:04:27.123Z,3.90
2018-11-14T21:06:55.395Z,3.90
2018-11-14T21:09:23.608Z,3.90
2018-11-14T21:11:51.849Z,3.90
2018-11-14T21:14:20.088Z,4.00
